Kaycee, Wyoming
Current Conditions -  °F | °C
As of 1:53 PM on Tuesday 27 Jan 2015 (Local Time) from KBYG Reporting Station
NA  
Wind Chill: 63°   Ceiling: NA
Heat Index: 63°   Visibility: 10mi
Dew Point: 27°   Wind: 3mph
Humidity: 26%   Direction: 320°NW
Pressure: 29.92"   Gusts: NA
Location:  43.71°N, 106.64°W
Report Text: KBYG 272053Z AUTO 32003KT 10SM 17/M03 A2992 RMK AO2 SLP089 T01721028 56024 $
Loading
Personal Weather Stations






























Interactive Weather Map New forecast layout! Learn more

10-Day Weather Forecast

Advertisements
Track Severe Weather on mobile